Ranshaw, Pennsylvania
Current Conditions -  °F | °C
As of 6:53 AM on Monday 24 Nov 2014 (Local Time) from KSEG Reporting Station
Overcast Overcast  
Wind Chill: 62°   Ceiling: 2100
Heat Index: 62°   Visibility: 10mi
Dew Point: 57°   Wind: 12mph
Humidity: 84%   Direction: 190°S
Pressure: 29.58"   Gusts: NA
Location:  40.7855°N, 76.5082°W
Report Text: KSEG 241153Z AUTO 19010KT 150V210 10SM BKN021 BKN027 OVC070 17/14 A2958 RMK AO2 SLP015 60033 70052 T01670139 10167 20111 55005 $
Loading
Personal Weather Stations






























Interactive Weather Map New forecast layout! Learn more

10-Day Weather Forecast

Advertisements
Track Severe Weather on mobile